Time;durP1;ratioP1;P1;durP2;ratioP2;P2;SDS_P1;SDS_P2;PMS_P1;PMS_P2;Temp;Humidity;BMP_temperature;BMP_pressure;BME280_temperature;BME280_humidity;BME280_pressure;Samples;Min_cycle;Max_cycle;Signal;HPM_P1;HPM_P2
2021/10/28 00:13:10;;;;;;;;;;;10.50;99.90;;;;;;5051889;28;20215;-82
2021/10/28 00:15:38;;;;;;;;;;;10.50;99.90;;;;;;5051940;28;19979;-82
2021/10/28 00:18:08;;;;;;;;;;;10.40;99.90;;;;;;5052297;28;20367;-82
2021/10/28 00:20:35;;;;;;;;;;;10.40;99.90;;;;;;5060097;28;20008;-82
2021/10/28 00:23:05;;;;;;;;;;;10.40;99.90;;;;;;5050761;28;19935;-82
2021/10/28 00:25:32;;;;;;;;;;;10.40;99.90;;;;;;5051833;28;20203;-82
2021/10/28 00:27:57;;;;;;;;;;;10.40;99.90;;;;;;5060124;28;19974;-80
2021/10/28 00:30:23;;;;;;;;;;;10.40;99.90;;;;;;5051482;28;19917;-81
2021/10/28 00:32:49;;;;;;;;;;;10.40;99.90;;;;;;5059781;28;19927;-81
2021/10/28 00:35:15;;;;;;;;;;;10.40;99.90;;;;;;5059462;28;19955;-80
2021/10/28 00:37:41;;;;;;;;;;;10.40;99.90;;;;;;5047863;28;20506;-81
2021/10/28 00:40:08;;;;;;;;;;;10.40;99.90;;;;;;5053258;28;19970;-81
2021/10/28 00:42:34;;;;;;;;;;;10.40;99.90;;;;;;5052751;28;19928;-80
2021/10/28 00:45:00;;;;;;;;;;;10.40;99.90;;;;;;5053206;28;19913;-82
2021/10/28 00:47:26;;;;;;;;;;;10.40;99.90;;;;;;5053558;28;20218;-81
2021/10/28 00:49:52;;;;;;;;;;;10.40;99.90;;;;;;5052548;28;19920;-81
2021/10/28 00:52:18;;;;;;;;;;;10.40;99.90;;;;;;5052445;28;19921;-82
2021/10/28 00:54:44;;;;;;;;;;;10.40;99.90;;;;;;5052762;28;19917;-80
2021/10/28 00:57:09;;;;;;;;;;;10.40;99.90;;;;;;5069274;28;19916;-81
2021/10/28 00:59:35;;;;;;;;;;;10.40;99.90;;;;;;5053534;28;20405;-82
2021/10/28 01:02:01;;;;;;;;;;;10.40;99.90;;;;;;5057263;28;20013;-82
2021/10/28 01:04:27;;;;;;;;;;;10.40;99.90;;;;;;5069466;28;19917;-80
2021/10/28 01:06:53;;;;;;;;;;;10.40;99.90;;;;;;5059502;28;20654;-82
2021/10/28 01:09:20;;;;;;;;;;;10.40;99.90;;;;;;5056081;28;20270;-82
2021/10/28 01:11:46;;;;;;;;;;;10.40;99.90;;;;;;5056637;28;19913;-82
2021/10/28 01:14:12;;;;;;;;;;;10.40;99.90;;;;;;5056133;28;19924;-82
2021/10/28 01:16:37;;;;;;;;;;;10.50;99.90;;;;;;5056309;28;19956;-81
2021/10/28 01:19:03;;;;;;;;;;;10.50;99.90;;;;;;5054778;28;19917;-82
2021/10/28 01:21:29;;;;;;;;;;;10.40;99.90;;;;;;5071934;28;19952;-82
2021/10/28 01:23:54;;;;;;;;;;;10.40;99.90;;;;;;5055807;28;20296;-81
2021/10/28 01:26:20;;;;;;;;;;;10.40;99.90;;;;;;5062417;28;19921;-83
2021/10/28 01:28:50;;;;;;;;;;;10.50;99.90;;;;;;5055612;28;19913;-82
2021/10/28 01:31:18;;;;;;;;;;;10.50;99.90;;;;;;5055133;28;19995;-81
2021/10/28 01:33:46;;;;;;;;;;;10.40;99.90;;;;;;5070237;28;21222;-82
2021/10/28 01:36:12;;;;;;;;;;;10.40;99.90;;;;;;5061764;28;19927;-81
2021/10/28 01:38:38;;;;;;;;;;;10.40;99.90;;;;;;5058877;28;19955;-81
2021/10/28 01:41:04;;;;;;;;;;;10.40;99.90;;;;;;5053121;28;20262;-80
2021/10/28 01:43:31;;;;;;;;;;;10.40;99.90;;;;;;5056799;28;19927;-82
2021/10/28 01:45:57;;;;;;;;;;;10.40;99.90;;;;;;5053979;28;19921;-83
2021/10/28 01:48:23;;;;;;;;;;;10.40;99.90;;;;;;5056639;28;19917;-81
2021/10/28 01:50:50;;;;;;;;;;;10.40;99.90;;;;;;5055171;28;19917;-82
2021/10/28 01:53:16;;;;;;;;;;;10.40;99.90;;;;;;5057883;28;19983;-82
2021/10/28 01:55:43;;;;;;;;;;;10.40;99.90;;;;;;5071751;28;19960;-81
2021/10/28 01:58:11;;;;;;;;;;;10.40;99.90;;;;;;5060083;28;19912;-81
2021/10/28 02:00:39;;;;;;;;;;;10.40;99.90;;;;;;5061422;28;20266;-81
2021/10/28 02:03:05;;;;;;;;;;;10.30;99.90;;;;;;5056551;28;19983;-83
2021/10/28 02:05:30;;;;;;;;;;;10.30;99.90;;;;;;5060914;28;20300;-83
2021/10/28 02:07:56;;;;;;;;;;;10.30;99.90;;;;;;5063408;28;19919;-81
2021/10/28 02:10:21;;;;;;;;;;;10.40;99.90;;;;;;5053610;28;19913;-82
2021/10/28 02:12:48;;;;;;;;;;;10.30;99.90;;;;;;5064204;28;19970;-81
2021/10/28 02:15:15;;;;;;;;;;;10.30;99.90;;;;;;5055443;28;19920;-81
2021/10/28 02:17:41;;;;;;;;;;;10.30;99.90;;;;;;5055060;28;19932;-81
2021/10/28 02:20:12;;;;;;;;;;;10.30;99.90;;;;;;5052338;28;19921;-81
2021/10/28 02:22:38;;;;;;;;;;;10.30;99.90;;;;;;5056427;28;19913;-81
2021/10/28 02:25:04;;;;;;;;;;;10.30;99.90;;;;;;5061094;28;19925;-82
2021/10/28 02:27:31;;;;;;;;;;;10.30;99.90;;;;;;5052957;28;19951;-80
2021/10/28 02:29:57;;;;;;;;;;;10.30;99.90;;;;;;5059421;28;19917;-82
2021/10/28 02:32:22;;;;;;;;;;;10.30;99.90;;;;;;5053909;28;20337;-80
2021/10/28 02:34:48;;;;;;;;;;;10.30;99.90;;;;;;5052338;28;19917;-79
2021/10/28 02:37:13;;;;;;;;;;;10.20;99.90;;;;;;5054378;28;20212;-81
2021/10/28 02:39:39;;;;;;;;;;;10.30;99.90;;;;;;5060743;28;19913;-80
2021/10/28 02:42:05;;;;;;;;;;;10.20;99.90;;;;;;5052751;28;20308;-81
2021/10/28 02:44:31;;;;;;;;;;;10.20;99.90;;;;;;5051853;28;19912;-81
2021/10/28 02:46:57;;;;;;;;;;;10.20;99.90;;;;;;5052472;28;19923;-83
2021/10/28 02:49:23;;;;;;;;;;;10.20;99.90;;;;;;5051993;28;19916;-80
2021/10/28 02:51:49;;;;;;;;;;;10.20;99.90;;;;;;5054021;28;19951;-81
2021/10/28 02:54:15;;;;;;;;;;;10.20;99.90;;;;;;5053393;28;19958;-80
2021/10/28 02:56:40;;;;;;;;;;;10.20;99.90;;;;;;5055839;28;19960;-81
2021/10/28 02:59:06;;;;;;;;;;;10.20;99.90;;;;;;5054787;28;20320;-81
2021/10/28 03:01:31;;;;;;;;;;;10.20;99.90;;;;;;5062383;28;19920;-82
2021/10/28 03:03:57;;;;;;;;;;;10.20;99.90;;;;;;5054992;28;20304;-80
2021/10/28 03:06:23;;;;;;;;;;;10.10;99.90;;;;;;5054122;28;19920;-86
2021/10/28 03:08:49;;;;;;;;;;;10.10;99.90;;;;;;5053244;28;20391;-80
2021/10/28 03:11:16;;;;;;;;;;;10.10;99.90;;;;;;5054981;28;19913;-81
2021/10/28 03:13:42;;;;;;;;;;;10.10;99.90;;;;;;5053184;28;19916;-82
2021/10/28 03:16:19;;;;;;;;;;;10.10;99.90;;;;;;5062907;28;20023;-82
2021/10/28 03:27:00;;;;;;;;;;;10.10;99.90;;;;;;5053231;28;20235;-82
2021/10/28 03:29:26;;;;;;;;;;;10.20;99.90;;;;;;5055237;28;19923;-79
2021/10/28 03:31:52;;;;;;;;;;;10.20;99.90;;;;;;5054086;28;19916;-80
2021/10/28 03:34:17;;;;;;;;;;;10.20;99.90;;;;;;5052897;28;20292;-81
2021/10/28 03:39:19;;;;;;;;;;;10.10;99.90;;;;;;5051229;28;19913;-80
2021/10/28 03:42:45;;;;;;;;;;;10.20;99.90;;;;;;5053986;28;19966;-81
2021/10/28 04:30:05;;;;;;;;;;;9.80;99.90;;;;;;5052237;28;19920;-81
2021/10/28 04:32:31;;;;;;;;;;;9.70;99.90;;;;;;5051912;28;20017;-90
2021/10/28 04:34:57;;;;;;;;;;;9.70;99.90;;;;;;5052601;28;19916;-80
2021/10/28 04:37:22;;;;;;;;;;;9.70;99.90;;;;;;5058161;28;20545;-81
2021/10/28 04:39:48;;;;;;;;;;;9.60;99.90;;;;;;5059204;28;19967;-80
2021/10/28 04:42:14;;;;;;;;;;;9.50;99.90;;;;;;5059313;28;19921;-80
2021/10/28 04:44:40;;;;;;;;;;;9.50;99.90;;;;;;5050770;28;19923;-80
2021/10/28 04:47:06;;;;;;;;;;;9.50;99.90;;;;;;5051328;28;19920;-82
2021/10/28 04:49:32;;;;;;;;;;;9.50;99.90;;;;;;5052486;28;20351;-79
2021/10/28 04:51:58;;;;;;;;;;;9.40;99.90;;;;;;5055218;28;19913;-80
2021/10/28 04:54:23;;;;;;;;;;;9.40;99.90;;;;;;5047900;28;19921;-79
2021/10/28 04:56:49;;;;;;;;;;;9.40;99.90;;;;;;5047610;28;19958;-87
2021/10/28 04:59:15;;;;;;;;;;;9.40;99.90;;;;;;5056517;28;19913;-79
2021/10/28 05:01:40;;;;;;;;;;;9.40;99.90;;;;;;5052791;28;19916;-80
2021/10/28 05:04:06;;;;;;;;;;;9.40;99.90;;;;;;5051615;28;19912;-79
2021/10/28 05:06:31;;;;;;;;;;;9.30;99.90;;;;;;5049791;28;19912;-79
2021/10/28 05:08:57;;;;;;;;;;;9.20;99.90;;;;;;5051350;28;19917;-81
2021/10/28 05:11:24;;;;;;;;;;;9.30;99.90;;;;;;5055415;28;19917;-84
2021/10/28 05:13:52;;;;;;;;;;;9.20;99.90;;;;;;5052391;28;19921;-83
2021/10/28 05:16:17;;;;;;;;;;;9.30;99.90;;;;;;5053249;28;20227;-79
2021/10/28 05:18:43;;;;;;;;;;;9.20;99.90;;;;;;5050364;28;19921;-80
2021/10/28 05:21:09;;;;;;;;;;;9.20;99.90;;;;;;5049213;28;20005;-80
2021/10/28 05:23:36;;;;;;;;;;;9.20;99.90;;;;;;5067465;28;20621;-80
2021/10/28 05:26:01;;;;;;;;;;;9.20;99.90;;;;;;5056632;28;19948;-80
2021/10/28 05:28:27;;;;;;;;;;;9.20;99.90;;;;;;5053710;28;20021;-81
2021/10/28 05:30:53;;;;;;;;;;;9.20;99.90;;;;;;5050347;28;20369;-88
2021/10/28 05:33:18;;;;;;;;;;;9.20;99.90;;;;;;5052916;28;19925;-85
2021/10/28 05:35:45;;;;;;;;;;;9.10;99.90;;;;;;5057900;28;19921;-81
2021/10/28 05:38:11;;;;;;;;;;;9.10;99.90;;;;;;5055724;28;19963;-79
2021/10/28 05:40:36;;;;;;;;;;;9.10;99.90;;;;;;5051162;28;19921;-81
2021/10/28 05:43:02;;;;;;;;;;;9.10;99.90;;;;;;5051810;28;19916;-81
2021/10/28 05:45:32;;;;;;;;;;;9.10;99.90;;;;;;5053232;28;19917;-83
2021/10/28 05:47:58;;;;;;;;;;;9.00;99.90;;;;;;5046627;28;19964;-79
2021/10/28 05:50:24;;;;;;;;;;;9.00;99.90;;;;;;5057517;28;19967;-86
2021/10/28 05:52:52;;;;;;;;;;;8.90;99.90;;;;;;5050524;28;19917;-82
2021/10/28 05:55:19;;;;;;;;;;;8.90;99.90;;;;;;5052059;28;20197;-84
2021/10/28 05:57:45;;;;;;;;;;;8.90;99.90;;;;;;5058353;28;19924;-87
2021/10/28 06:00:11;;;;;;;;;;;8.90;99.90;;;;;;5056145;28;19966;-81
2021/10/28 06:02:37;;;;;;;;;;;8.90;99.90;;;;;;5055377;28;19916;-81
2021/10/28 06:05:09;;;;;;;;;;;8.90;99.90;;;;;;5055843;28;19917;-80
2021/10/28 06:07:35;;;;;;;;;;;8.90;99.90;;;;;;5051998;28;20319;-80
2021/10/28 06:10:01;;;;;;;;;;;8.90;99.90;;;;;;5061937;28;19913;-86
2021/10/28 06:12:31;;;;;;;;;;;8.90;99.90;;;;;;5054751;28;19921;-82
2021/10/28 06:14:56;;;;;;;;;;;8.90;99.90;;;;;;5069753;28;19913;-80
2021/10/28 06:17:30;;;;;;;;;;;8.80;99.90;;;;;;5054960;28;19965;-79
2021/10/28 06:20:01;;;;;;;;;;;8.80;99.90;;;;;;5056325;28;19913;-80
2021/10/28 06:22:28;;;;;;;;;;;8.80;99.90;;;;;;5063036;28;19967;-80
2021/10/28 06:24:55;;;;;;;;;;;8.70;99.90;;;;;;5054611;28;20219;-80
2021/10/28 06:27:20;;;;;;;;;;;8.70;99.90;;;;;;5053884;28;19933;-86
2021/10/28 06:29:46;;;;;;;;;;;8.70;99.90;;;;;;5071734;28;19912;-83
2021/10/28 06:32:13;;;;;;;;;;;8.80;99.90;;;;;;5054240;28;19928;-88
2021/10/28 06:34:42;;;;;;;;;;;8.70;99.90;;;;;;5050449;28;20224;-79
2021/10/28 06:37:08;;;;;;;;;;;8.70;99.90;;;;;;5050817;28;20004;-88
2021/10/28 06:39:34;;;;;;;;;;;8.70;99.90;;;;;;5051760;28;19964;-80
2021/10/28 06:42:00;;;;;;;;;;;8.70;99.90;;;;;;5054207;28;19916;-80
2021/10/28 06:44:25;;;;;;;;;;;8.70;99.90;;;;;;5049441;28;19920;-80
2021/10/28 06:46:51;;;;;;;;;;;8.70;99.90;;;;;;5069987;28;19913;-80
2021/10/28 06:49:18;;;;;;;;;;;8.70;99.90;;;;;;5053232;28;20327;-80
2021/10/28 06:51:44;;;;;;;;;;;8.70;99.90;;;;;;5053509;28;19920;-79
2021/10/28 07:02:18;;;;;;;;;;;8.70;99.90;;;;;;5052660;28;19924;-78
2021/10/28 07:04:46;;;;;;;;;;;8.80;99.90;;;;;;5056752;28;20358;-79
2021/10/28 07:07:12;;;;;;;;;;;8.80;99.90;;;;;;5054725;28;20063;-83
2021/10/28 07:09:49;;;;;;;;;;;8.80;99.90;;;;;;5053203;28;20354;-80
2021/10/28 07:21:27;;;;;;;;;;;9.50;99.90;;;;;;5052935;28;19921;-80
2021/10/28 07:31:20;;;;;;;;;;;10.00;99.90;;;;;;5053945;28;20266;-81
2021/10/28 08:21:27;;;;;;;;;;;10.90;99.90;;;;;;5045528;28;20034;-83
2021/10/28 08:29:27;;;;;;;;;;;11.20;99.90;;;;;;5053715;28;19966;-80
2021/10/28 08:31:54;;;;;;;;;;;11.30;99.90;;;;;;5050914;28;20496;-82
2021/10/28 08:34:26;;;;;;;;;;;11.40;99.90;;;;;;5052868;28;21146;-79
2021/10/28 08:36:53;;;;;;;;;;;11.50;99.90;;;;;;5053444;28;19920;-90
2021/10/28 08:39:21;;;;;;;;;;;11.50;99.90;;;;;;5052773;28;20211;-91
2021/10/28 08:41:47;;;;;;;;;;;11.60;99.90;;;;;;5054177;28;20011;-84
2021/10/28 08:44:19;;;;;;;;;;;11.60;99.90;;;;;;5053589;28;20315;-89
2021/10/28 08:46:46;;;;;;;;;;;11.60;99.90;;;;;;5061243;28;19920;-83
2021/10/28 08:49:18;;;;;;;;;;;11.60;99.90;;;;;;5050552;28;19913;-82
2021/10/28 08:52:07;;;;;;;;;;;11.60;99.90;;;;;;5048437;28;19917;-90
2021/10/28 08:54:53;;;;;;;;;;;11.70;99.90;;;;;;5057469;28;20373;-91
2021/10/28 09:19:37;;;;;;;;;;;12.40;99.90;;;;;;5053768;28;19916;-85
2021/10/28 09:24:55;;;;;;;;;;;12.40;99.90;;;;;;5050436;28;19963;-84
2021/10/28 09:27:33;;;;;;;;;;;12.40;99.90;;;;;;5050093;28;19956;-87
2021/10/28 09:52:02;;;;;;;;;;;12.90;99.90;;;;;;5062309;28;19951;-95
2021/10/28 09:54:46;;;;;;;;;;;13.00;99.90;;;;;;5057287;28;19921;-85
2021/10/28 10:00:11;;;;;;;;;;;13.10;99.90;;;;;;5057594;28;19958;-84
2021/10/28 10:05:06;;;;;;;;;;;13.20;99.90;;;;;;5057700;28;19917;-89
2021/10/28 10:07:32;;;;;;;;;;;13.30;99.90;;;;;;5057638;28;20264;-85
2021/10/28 10:10:01;;;;;;;;;;;13.30;99.90;;;;;;5058016;28;19917;-89
2021/10/28 10:12:27;;;;;;;;;;;13.40;99.90;;;;;;5048169;22;19926;-87
2021/10/28 10:14:53;;;;;;;;;;;13.40;99.90;;;;;;5027092;28;20055;-95
2021/10/28 10:17:34;;;;;;;;;;;13.50;99.90;;;;;;5015298;28;19914;-91
2021/10/28 10:20:01;;;;;;;;;;;13.70;99.90;;;;;;5018968;28;19920;-89
2021/10/28 10:25:30;;;;;;;;;;;13.80;99.90;;;;;;5015095;28;19920;-86
2021/10/28 11:16:10;;;;;;;;;;;15.10;99.90;;;;;;5002012;28;20279;-85
2021/10/28 12:44:10;;;;;;;;;;;16.20;99.90;;;;;;5015515;28;20040;-87
2021/10/28 13:49:39;;;;;;;;;;;16.40;99.90;;;;;;5017933;28;19921;-84
2021/10/28 15:49:17;;;;;;;;;;;14.90;99.90;;;;;;5010639;28;19937;-85
2021/10/28 16:21:51;;;;;;;;;;;13.80;99.90;;;;;;4988415;28;19964;-84
2021/10/28 16:24:18;;;;;;;;;;;13.70;99.90;;;;;;4973892;28;19914;-84
2021/10/28 16:26:44;;;;;;;;;;;13.60;99.90;;;;;;4984260;28;19921;-83
2021/10/28 16:29:12;;;;;;;;;;;13.60;99.90;;;;;;4985443;28;19914;-85
2021/10/28 16:31:41;;;;;;;;;;;13.50;99.90;;;;;;4985454;28;19964;-83
2021/10/28 16:34:07;;;;;;;;;;;13.40;99.90;;;;;;4971783;28;20013;-83
2021/10/28 16:36:33;;;;;;;;;;;13.40;99.90;;;;;;4985701;28;20076;-82
2021/10/28 16:39:03;;;;;;;;;;;13.30;99.90;;;;;;4994647;28;19924;-82
2021/10/28 16:41:28;;;;;;;;;;;13.30;99.90;;;;;;5008447;28;19918;-83
2021/10/28 16:43:54;;;;;;;;;;;13.20;99.90;;;;;;5005640;28;20197;-83
2021/10/28 16:46:20;;;;;;;;;;;13.20;99.90;;;;;;5003386;28;19941;-84
2021/10/28 16:48:46;;;;;;;;;;;13.10;99.90;;;;;;5006768;28;19922;-84
2021/10/28 16:51:12;;;;;;;;;;;13.10;99.90;;;;;;5009869;28;19913;-83
2021/10/28 16:53:38;;;;;;;;;;;13.10;99.90;;;;;;5005935;28;19928;-83
2021/10/28 16:56:04;;;;;;;;;;;13.00;99.90;;;;;;5008891;28;20372;-84
2021/10/28 16:58:29;;;;;;;;;;;12.90;99.90;;;;;;5005253;28;19964;-84
2021/10/28 17:00:55;;;;;;;;;;;12.90;99.90;;;;;;5006390;28;20321;-83
2021/10/28 17:03:21;;;;;;;;;;;12.80;99.90;;;;;;5004813;28;19928;-86
2021/10/28 17:05:48;;;;;;;;;;;12.80;99.90;;;;;;5005364;28;20271;-83
2021/10/28 17:08:15;;;;;;;;;;;12.70;99.90;;;;;;5004933;28;19924;-82
2021/10/28 17:10:40;;;;;;;;;;;12.60;99.90;;;;;;5003137;28;19913;-83
2021/10/28 17:13:06;;;;;;;;;;;12.60;99.90;;;;;;5005114;28;19922;-82
2021/10/28 17:15:32;;;;;;;;;;;12.60;99.90;;;;;;5004882;28;20198;-83
2021/10/28 17:17:57;;;;;;;;;;;12.60;99.90;;;;;;5002134;28;20032;-82
2021/10/28 17:20:25;;;;;;;;;;;12.60;99.90;;;;;;5002916;28;19960;-82
2021/10/28 17:22:52;;;;;;;;;;;12.60;99.90;;;;;;5004814;28;19920;-84
2021/10/28 17:25:20;;;;;;;;;;;12.60;99.90;;;;;;5004564;28;19940;-82
2021/10/28 17:27:47;;;;;;;;;;;12.60;99.90;;;;;;5004681;28;20288;-83
2021/10/28 17:30:13;;;;;;;;;;;12.60;99.90;;;;;;5006041;28;19924;-83
2021/10/28 17:32:41;;;;;;;;;;;12.50;99.90;;;;;;5003258;28;19928;-82
2021/10/28 17:35:10;;;;;;;;;;;12.40;99.90;;;;;;5005986;28;19917;-82
2021/10/28 17:37:35;;;;;;;;;;;12.30;99.90;;;;;;5002835;28;20011;-82
2021/10/28 17:40:01;;;;;;;;;;;12.30;99.90;;;;;;5004328;28;20000;-82
2021/10/28 17:42:28;;;;;;;;;;;12.30;99.90;;;;;;5005169;28;19972;-83
2021/10/28 17:44:57;;;;;;;;;;;12.30;99.90;;;;;;5005120;28;19997;-84
2021/10/28 17:47:23;;;;;;;;;;;12.30;99.90;;;;;;5007822;28;19913;-82
2021/10/28 17:49:49;;;;;;;;;;;12.30;99.90;;;;;;5010878;28;19922;-82
2021/10/28 17:52:17;;;;;;;;;;;12.30;99.90;;;;;;5016955;28;19920;-82
2021/10/28 17:54:42;;;;;;;;;;;12.30;99.90;;;;;;5014309;28;20260;-82
2021/10/28 17:57:08;;;;;;;;;;;12.30;99.90;;;;;;5009504;28;19983;-83
2021/10/28 17:59:34;;;;;;;;;;;12.20;99.90;;;;;;5013243;28;20271;-82
2021/10/28 18:02:00;;;;;;;;;;;12.20;99.90;;;;;;5009587;28;20004;-82
2021/10/28 18:04:26;;;;;;;;;;;12.20;99.90;;;;;;5012276;28;19993;-81
2021/10/28 18:06:51;;;;;;;;;;;12.20;99.90;;;;;;5012930;28;20008;-82
2021/10/28 18:09:18;;;;;;;;;;;12.20;99.90;;;;;;5014754;28;19914;-82
2021/10/28 18:11:44;;;;;;;;;;;12.20;99.90;;;;;;5014407;28;19928;-81
2021/10/28 18:14:16;;;;;;;;;;;12.20;99.90;;;;;;5014519;28;19992;-83
2021/10/28 18:16:42;;;;;;;;;;;12.20;99.90;;;;;;5014133;28;20305;-81
2021/10/28 18:19:08;;;;;;;;;;;12.20;99.90;;;;;;5012025;28;19964;-82
2021/10/28 18:21:37;;;;;;;;;;;12.10;99.90;;;;;;5008839;28;19921;-82
2021/10/28 18:24:04;;;;;;;;;;;12.10;99.90;;;;;;5006617;28;19944;-83
2021/10/28 18:26:30;;;;;;;;;;;12.00;99.90;;;;;;5003474;28;20004;-81
2021/10/28 18:28:56;;;;;;;;;;;12.00;99.90;;;;;;5005764;28;20017;-82
2021/10/28 18:31:23;;;;;;;;;;;12.00;99.90;;;;;;5007104;28;19953;-82
2021/10/28 18:33:49;;;;;;;;;;;12.00;99.90;;;;;;5005965;28;20316;-81
2021/10/28 18:36:15;;;;;;;;;;;11.90;99.90;;;;;;5007744;28;20446;-82
2021/10/28 18:38:47;;;;;;;;;;;11.90;99.90;;;;;;5007127;28;19924;-82
2021/10/28 18:41:14;;;;;;;;;;;11.80;99.90;;;;;;5008911;28;20227;-82
2021/10/28 18:43:40;;;;;;;;;;;11.80;99.90;;;;;;5005615;28;20000;-82
2021/10/28 18:46:10;;;;;;;;;;;11.80;99.90;;;;;;5007295;28;20324;-82
2021/10/28 18:48:41;;;;;;;;;;;11.80;99.90;;;;;;5007861;28;20359;-82
2021/10/28 18:51:08;;;;;;;;;;;11.80;99.90;;;;;;5005723;28;19918;-81
2021/10/28 18:53:38;;;;;;;;;;;11.80;99.90;;;;;;5009441;28;19917;-81
2021/10/28 18:56:04;;;;;;;;;;;11.80;99.90;;;;;;5007536;28;19926;-81
2021/10/28 18:58:30;;;;;;;;;;;11.70;99.90;;;;;;5010565;28;19918;-82
2021/10/28 19:00:56;;;;;;;;;;;11.80;99.90;;;;;;5007956;28;19963;-83
2021/10/28 19:03:22;;;;;;;;;;;11.80;99.90;;;;;;5007559;28;19952;-82
2021/10/28 19:05:54;;;;;;;;;;;11.80;99.90;;;;;;5006699;28;19972;-84
2021/10/28 19:08:21;;;;;;;;;;;11.80;99.90;;;;;;5006667;28;19922;-87
2021/10/28 19:10:47;;;;;;;;;;;11.80;99.90;;;;;;5006480;28;19921;-82
2021/10/28 19:13:12;;;;;;;;;;;11.80;99.90;;;;;;5011223;28;19992;-82
2021/10/28 19:15:38;;;;;;;;;;;11.80;99.90;;;;;;5005662;28;20337;-81
2021/10/28 19:18:06;;;;;;;;;;;11.80;99.90;;;;;;5010013;28;20316;-82
2021/10/28 19:20:31;;;;;;;;;;;11.80;99.90;;;;;;5006888;28;20255;-82
2021/10/28 19:22:57;;;;;;;;;;;11.80;99.90;;;;;;5006844;28;20040;-83
2021/10/28 19:25:23;;;;;;;;;;;11.70;99.90;;;;;;5016563;28;19924;-82
2021/10/28 19:27:52;;;;;;;;;;;11.80;99.90;;;;;;5008779;28;19922;-82
2021/10/28 19:32:44;;;;;;;;;;;11.80;99.90;;;;;;5008691;28;19928;-81
2021/10/28 19:35:09;;;;;;;;;;;11.80;99.90;;;;;;5004318;28;19952;-80
2021/10/28 19:45:25;;;;;;;;;;;11.80;99.90;;;;;;5008734;28;19921;-81
2021/10/28 19:47:51;;;;;;;;;;;11.80;99.90;;;;;;5006605;28;19928;-81
2021/10/28 19:50:17;;;;;;;;;;;11.80;99.90;;;;;;5007928;28;19921;-81
2021/10/28 19:52:43;;;;;;;;;;;11.80;99.90;;;;;;5002052;28;19971;-81
2021/10/28 19:55:09;;;;;;;;;;;11.80;99.90;;;;;;5003742;28;19933;-81
2021/10/28 19:57:40;;;;;;;;;;;11.80;99.90;;;;;;5009398;28;19928;-80
2021/10/28 20:00:15;;;;;;;;;;;11.80;99.90;;;;;;5020566;28;19913;-80
2021/10/28 20:21:22;;;;;;;;;;;11.70;99.90;;;;;;4938015;28;19921;-81
2021/10/28 20:23:49;;;;;;;;;;;11.70;99.90;;;;;;4952309;29;19922;-81
2021/10/28 20:26:15;;;;;;;;;;;11.60;99.90;;;;;;4950461;29;19915;-80
2021/10/28 20:28:42;;;;;;;;;;;11.60;99.90;;;;;;4948347;29;19927;-80
2021/10/28 20:31:08;;;;;;;;;;;11.60;99.90;;;;;;4948745;29;20076;-80
2021/10/28 20:33:44;;;;;;;;;;;11.60;99.90;;;;;;4949168;29;19940;-80
2021/10/28 20:38:59;;;;;;;;;;;11.50;99.90;;;;;;4949531;29;19922;-81
2021/10/28 20:41:25;;;;;;;;;;;11.50;99.90;;;;;;4952119;28;20006;-82
2021/10/28 20:43:52;;;;;;;;;;;11.50;99.90;;;;;;4951195;29;19915;-80
2021/10/28 20:46:21;;;;;;;;;;;11.50;99.90;;;;;;4953407;29;19911;-81
2021/10/28 20:48:48;;;;;;;;;;;11.50;99.90;;;;;;4939684;28;19918;-80
2021/10/28 20:51:14;;;;;;;;;;;11.50;99.90;;;;;;4959787;28;19919;-80
2021/10/28 20:53:40;;;;;;;;;;;11.50;99.90;;;;;;5013239;28;19925;-81
2021/10/28 20:56:05;;;;;;;;;;;11.50;99.90;;;;;;4996751;28;20186;-81
2021/10/28 20:58:31;;;;;;;;;;;11.50;99.90;;;;;;4998740;28;19910;-81
2021/10/28 21:00:56;;;;;;;;;;;11.50;99.90;;;;;;5001072;28;19909;-81
2021/10/28 21:03:22;;;;;;;;;;;11.40;99.90;;;;;;5004463;28;19999;-80
2021/10/28 21:05:48;;;;;;;;;;;11.40;99.90;;;;;;5009264;28;20225;-81
2021/10/28 21:08:14;;;;;;;;;;;11.40;99.90;;;;;;5012763;28;19968;-83
2021/10/28 21:10:39;;;;;;;;;;;11.30;99.90;;;;;;5009495;28;20383;-81
2021/10/28 21:13:05;;;;;;;;;;;11.30;99.90;;;;;;5011561;28;20260;-81
2021/10/28 21:15:31;;;;;;;;;;;11.30;99.90;;;;;;5012256;28;19921;-80
2021/10/28 21:17:57;;;;;;;;;;;11.30;99.90;;;;;;5013387;28;19936;-80
2021/10/28 21:20:24;;;;;;;;;;;11.30;99.90;;;;;;5010795;28;20301;-80
2021/10/28 21:22:50;;;;;;;;;;;11.30;99.90;;;;;;5013616;28;19964;-79
2021/10/28 21:25:16;;;;;;;;;;;11.30;99.90;;;;;;5014112;28;19921;-81
2021/10/28 21:27:42;;;;;;;;;;;11.30;99.90;;;;;;5012150;28;19917;-81
2021/10/28 21:30:09;;;;;;;;;;;11.30;99.90;;;;;;5016342;28;19925;-80
2021/10/28 21:32:36;;;;;;;;;;;11.30;99.90;;;;;;5015189;28;20245;-80
2021/10/28 21:35:03;;;;;;;;;;;11.30;99.90;;;;;;5013509;28;19921;-79
2021/10/28 21:37:30;;;;;;;;;;;11.30;99.90;;;;;;5011172;28;19921;-81
2021/10/28 21:39:56;;;;;;;;;;;11.30;99.90;;;;;;5007386;28;19925;-80
2021/10/28 21:42:25;;;;;;;;;;;11.30;99.90;;;;;;5009918;28;19992;-81
2021/10/28 21:44:54;;;;;;;;;;;11.40;99.90;;;;;;5014614;28;20055;-80
2021/10/28 21:47:20;;;;;;;;;;;11.40;99.90;;;;;;5013213;28;19957;-81
2021/10/28 21:49:46;;;;;;;;;;;11.40;99.90;;;;;;5015004;28;20366;-80
2021/10/28 21:52:24;;;;;;;;;;;11.40;99.90;;;;;;5014277;28;19913;-81
2021/10/28 21:55:12;;;;;;;;;;;11.40;99.90;;;;;;5016236;28;19944;-81
2021/10/28 22:00:38;;;;;;;;;;;11.50;99.90;;;;;;5015060;28;20008;-80
2021/10/28 22:24:52;;;;;;;;;;;11.20;99.90;;;;;;5008816;28;20008;-79
2021/10/28 22:27:22;;;;;;;;;;;11.20;99.90;;;;;;5008157;28;19922;-79
2021/10/28 22:29:48;;;;;;;;;;;11.20;99.90;;;;;;5010428;28;19918;-80
2021/10/28 22:32:15;;;;;;;;;;;11.20;99.90;;;;;;5015077;28;19914;-80
2021/10/28 22:34:45;;;;;;;;;;;11.20;99.90;;;;;;5007265;28;19925;-80
2021/10/28 22:37:25;;;;;;;;;;;11.10;99.90;;;;;;5010996;28;19921;-81
2021/10/28 22:42:30;;;;;;;;;;;11.10;99.90;;;;;;5013451;28;19948;-79
2021/10/28 22:44:56;;;;;;;;;;;11.10;99.90;;;;;;5015010;28;19996;-81
2021/10/28 22:47:21;;;;;;;;;;;11.10;99.90;;;;;;5016085;28;20397;-82
2021/10/28 22:49:47;;;;;;;;;;;11.10;99.90;;;;;;5011447;28;19975;-80
2021/10/28 22:54:44;;;;;;;;;;;11.10;99.90;;;;;;5015373;28;19924;-80
2021/10/28 22:57:21;;;;;;;;;;;11.00;99.90;;;;;;5011644;28;19918;-80
2021/10/28 22:59:47;;;;;;;;;;;11.00;99.90;;;;;;5010691;28;19914;-80
2021/10/28 23:02:33;;;;;;;;;;;11.00;99.90;;;;;;5013219;28;19997;-80
2021/10/28 23:20:53;;;;;;;;;;;10.90;99.90;;;;;;5012512;28;19976;-80
2021/10/28 23:23:12;;;;;;;;;;;10.90;99.90;;;;;;5010045;28;20270;-80
2021/10/28 23:25:38;;;;;;;;;;;10.90;99.90;;;;;;5013660;28;19918;-81
2021/10/28 23:28:04;;;;;;;;;;;10.90;99.90;;;;;;5012451;28;19940;-80
2021/10/28 23:30:29;;;;;;;;;;;10.90;99.90;;;;;;5010698;28;19928;-80
2021/10/28 23:32:58;;;;;;;;;;;10.80;99.90;;;;;;5012821;28;19913;-79
2021/10/28 23:35:23;;;;;;;;;;;10.80;99.90;;;;;;5013042;28;19917;-79
2021/10/28 23:37:49;;;;;;;;;;;10.80;99.90;;;;;;5009747;28;20327;-79
2021/10/28 23:40:14;;;;;;;;;;;10.80;99.90;;;;;;5010213;28;20309;-80
2021/10/28 23:42:40;;;;;;;;;;;10.80;99.90;;;;;;5012798;28;19975;-79
2021/10/28 23:45:06;;;;;;;;;;;10.80;99.90;;;;;;5036943;28;19959;-79
2021/10/28 23:47:32;;;;;;;;;;;10.90;99.90;;;;;;5012188;28;19918;-81
2021/10/28 23:49:57;;;;;;;;;;;10.80;99.90;;;;;;5013595;28;20535;-80
2021/10/28 23:52:23;;;;;;;;;;;10.80;99.90;;;;;;5010003;28;19924;-80
2021/10/28 23:54:48;;;;;;;;;;;10.80;99.90;;;;;;5008779;28;19925;-80
2021/10/28 23:57:14;;;;;;;;;;;10.90;99.90;;;;;;5013680;28;19914;-80
2021/10/28 23:59:39;;;;;;;;;;;10.90;99.90;;;;;;5011108;28;19928;-79
